Argyle, Michigan
Current Conditions -  °F | °C
As of 7:55 AM on Friday 19 Dec 2014 (Local Time) from KBAX Reporting Station
Overcast Overcast  
Wind Chill: 22°   Ceiling: 2200
Heat Index: 22°   Visibility: 10mi
Dew Point: 21°   Wind: 3mph
Humidity: 95%   Direction: 290°WNW
Pressure: 30.25"   Gusts: NA
Location:  43.56°N, 82.94°W
Report Text: KBAX 191255Z AUTO 29003KT 10SM OVC022 M05/M06 A3025 RMK AO2 T10551062
Loading
Personal Weather Stations






























Interactive Weather Map New forecast layout! Learn more

10-Day Weather Forecast

Advertisements
Track Severe Weather on mobile